<?xml version="1.0" encoding="UTF-8" standalone="no" ?>
<gpx xmlns="http://www.topografix.com/GPX/1/1" xmlns:xsi="http://www.w3.org/2001/XMLSchema-instance" xsi:schemaLocation="http://www.topografix.com/GPX/1/1 http://www.topografix.com/GPX/1/1/gpx.xsd" version="1.1" creator="VisuGPX - https://www.visugpx.com">
  <metadata>
    <name>Circuit Dampierre</name>
    <desc><![CDATA[Circuit très agréable, mais un peu court à la demi-journée, à prolonger]]></desc>
  </metadata>
  <trk>
    <name><![CDATA[15 mars 2015 10:01:58]]></name>
    <cmt><![CDATA[15 mars 2015 10:01:58]]></cmt>
    <trkseg>
      <trkpt lat="48.71984" lon="1.95971">
        <ele>98</ele>
        <time>2015-03-15T09:02:48Z</time>
      </trkpt>
      <trkpt lat="48.71988" lon="1.95987">
        <ele>97</ele>
        <time>2015-03-15T09:03:00Z</time>
      </trkpt>
      <trkpt lat="48.71985" lon="1.96022">
        <ele>98</ele>
        <time>2015-03-15T09:03:19Z</time>
      </trkpt>
      <trkpt lat="48.71994" lon="1.96054">
        <ele>101</ele>
        <time>2015-03-15T09:03:56Z</time>
      </trkpt>
      <trkpt lat="48.72012" lon="1.96074">
        <ele>103</ele>
        <time>2015-03-15T09:04:18Z</time>
      </trkpt>
      <trkpt lat="48.72034" lon="1.96083">
        <ele>104</ele>
        <time>2015-03-15T09:04:40Z</time>
      </trkpt>
      <trkpt lat="48.72052" lon="1.96106">
        <ele>109</ele>
        <time>2015-03-15T09:05:33Z</time>
      </trkpt>
      <trkpt lat="48.72073" lon="1.96118">
        <ele>131</ele>
        <time>2015-03-15T09:06:40Z</time>
      </trkpt>
      <trkpt lat="48.72093" lon="1.96133">
        <ele>137</ele>
        <time>2015-03-15T09:07:11Z</time>
      </trkpt>
      <trkpt lat="48.72084" lon="1.96164">
        <ele>140</ele>
        <time>2015-03-15T09:07:56Z</time>
      </trkpt>
      <trkpt lat="48.721" lon="1.96187">
        <ele>142</ele>
        <time>2015-03-15T09:08:21Z</time>
      </trkpt>
      <trkpt lat="48.72112" lon="1.96217">
        <ele>143</ele>
        <time>2015-03-15T09:08:40Z</time>
      </trkpt>
      <trkpt lat="48.72106" lon="1.9625">
        <ele>154</ele>
        <time>2015-03-15T09:10:09Z</time>
      </trkpt>
      <trkpt lat="48.72093" lon="1.96279">
        <ele>156</ele>
        <time>2015-03-15T09:10:29Z</time>
      </trkpt>
      <trkpt lat="48.72085" lon="1.96312">
        <ele>154</ele>
        <time>2015-03-15T09:10:57Z</time>
      </trkpt>
      <trkpt lat="48.72067" lon="1.96335">
        <ele>154</ele>
        <time>2015-03-15T09:11:16Z</time>
      </trkpt>
      <trkpt lat="48.72032" lon="1.96383">
        <ele>153</ele>
        <time>2015-03-15T09:11:59Z</time>
      </trkpt>
      <trkpt lat="48.72023" lon="1.96416">
        <ele>152</ele>
        <time>2015-03-15T09:12:14Z</time>
      </trkpt>
      <trkpt lat="48.72007" lon="1.96481">
        <ele>153</ele>
        <time>2015-03-15T09:12:41Z</time>
      </trkpt>
      <trkpt lat="48.7199" lon="1.96505">
        <ele>153</ele>
        <time>2015-03-15T09:13:07Z</time>
      </trkpt>
      <trkpt lat="48.71977" lon="1.96533">
        <ele>153</ele>
        <time>2015-03-15T09:13:57Z</time>
      </trkpt>
      <trkpt lat="48.71958" lon="1.96596">
        <ele>154</ele>
        <time>2015-03-15T09:14:32Z</time>
      </trkpt>
      <trkpt lat="48.71929" lon="1.96649">
        <ele>154</ele>
        <time>2015-03-15T09:15:02Z</time>
      </trkpt>
      <trkpt lat="48.71922" lon="1.96683">
        <ele>154</ele>
        <time>2015-03-15T09:15:20Z</time>
      </trkpt>
      <trkpt lat="48.7192" lon="1.96718">
        <ele>154</ele>
        <time>2015-03-15T09:15:39Z</time>
      </trkpt>
      <trkpt lat="48.71922" lon="1.96786">
        <ele>155</ele>
        <time>2015-03-15T09:16:16Z</time>
      </trkpt>
      <trkpt lat="48.71922" lon="1.9682">
        <ele>155</ele>
        <time>2015-03-15T09:16:35Z</time>
      </trkpt>
      <trkpt lat="48.71904" lon="1.96842">
        <ele>150</ele>
        <time>2015-03-15T09:17:57Z</time>
      </trkpt>
      <trkpt lat="48.71898" lon="1.96876">
        <ele>150</ele>
        <time>2015-03-15T09:18:19Z</time>
      </trkpt>
      <trkpt lat="48.71887" lon="1.96907">
        <ele>150</ele>
        <time>2015-03-15T09:18:37Z</time>
      </trkpt>
      <trkpt lat="48.71865" lon="1.96906">
        <ele>148</ele>
        <time>2015-03-15T09:19:06Z</time>
      </trkpt>
      <trkpt lat="48.71843" lon="1.96893">
        <ele>145</ele>
        <time>2015-03-15T09:19:37Z</time>
      </trkpt>
      <trkpt lat="48.71832" lon="1.96864">
        <ele>142</ele>
        <time>2015-03-15T09:20:08Z</time>
      </trkpt>
      <trkpt lat="48.71812" lon="1.96841">
        <ele>137</ele>
        <time>2015-03-15T09:20:58Z</time>
      </trkpt>
      <trkpt lat="48.71799" lon="1.96813">
        <ele>133</ele>
        <time>2015-03-15T09:21:36Z</time>
      </trkpt>
      <trkpt lat="48.71784" lon="1.96839">
        <ele>128</ele>
        <time>2015-03-15T09:22:15Z</time>
      </trkpt>
      <trkpt lat="48.71785" lon="1.96874">
        <ele>124</ele>
        <time>2015-03-15T09:22:47Z</time>
      </trkpt>
      <trkpt lat="48.71777" lon="1.96907">
        <ele>121</ele>
        <time>2015-03-15T09:23:00Z</time>
      </trkpt>
      <trkpt lat="48.71755" lon="1.96919">
        <ele>117</ele>
        <time>2015-03-15T09:23:21Z</time>
      </trkpt>
      <trkpt lat="48.71754" lon="1.96954">
        <ele>114</ele>
        <time>2015-03-15T09:23:38Z</time>
      </trkpt>
      <trkpt lat="48.71753" lon="1.96988">
        <ele>111</ele>
        <time>2015-03-15T09:23:57Z</time>
      </trkpt>
      <trkpt lat="48.71735" lon="1.97051">
        <ele>107</ele>
        <time>2015-03-15T09:24:39Z</time>
      </trkpt>
      <trkpt lat="48.71741" lon="1.97085">
        <ele>104</ele>
        <time>2015-03-15T09:26:04Z</time>
      </trkpt>
      <trkpt lat="48.71734" lon="1.97119">
        <ele>105</ele>
        <time>2015-03-15T09:26:23Z</time>
      </trkpt>
      <trkpt lat="48.71725" lon="1.97152">
        <ele>108</ele>
        <time>2015-03-15T09:26:45Z</time>
      </trkpt>
      <trkpt lat="48.71711" lon="1.97217">
        <ele>110</ele>
        <time>2015-03-15T09:27:19Z</time>
      </trkpt>
      <trkpt lat="48.71691" lon="1.97282">
        <ele>110</ele>
        <time>2015-03-15T09:27:59Z</time>
      </trkpt>
      <trkpt lat="48.71679" lon="1.97351">
        <ele>111</ele>
        <time>2015-03-15T09:28:32Z</time>
      </trkpt>
      <trkpt lat="48.71665" lon="1.97377">
        <ele>112</ele>
        <time>2015-03-15T09:28:46Z</time>
      </trkpt>
      <trkpt lat="48.71668" lon="1.97412">
        <ele>112</ele>
        <time>2015-03-15T09:29:09Z</time>
      </trkpt>
      <trkpt lat="48.71657" lon="1.97442">
        <ele>112</ele>
        <time>2015-03-15T09:29:27Z</time>
      </trkpt>
      <trkpt lat="48.71636" lon="1.97455">
        <ele>113</ele>
        <time>2015-03-15T09:29:46Z</time>
      </trkpt>
      <trkpt lat="48.716" lon="1.97501">
        <ele>113</ele>
        <time>2015-03-15T09:30:23Z</time>
      </trkpt>
      <trkpt lat="48.71574" lon="1.97557">
        <ele>113</ele>
        <time>2015-03-15T09:31:09Z</time>
      </trkpt>
      <trkpt lat="48.71542" lon="1.97606">
        <ele>113</ele>
        <time>2015-03-15T09:31:46Z</time>
      </trkpt>
      <trkpt lat="48.7153" lon="1.97636">
        <ele>113</ele>
        <time>2015-03-15T09:32:08Z</time>
      </trkpt>
      <trkpt lat="48.71511" lon="1.977">
        <ele>114</ele>
        <time>2015-03-15T09:32:43Z</time>
      </trkpt>
      <trkpt lat="48.71489" lon="1.9776">
        <ele>114</ele>
        <time>2015-03-15T09:33:30Z</time>
      </trkpt>
      <trkpt lat="48.71464" lon="1.9782">
        <ele>112</ele>
        <time>2015-03-15T09:34:06Z</time>
      </trkpt>
      <trkpt lat="48.71465" lon="1.97854">
        <ele>111</ele>
        <time>2015-03-15T09:34:24Z</time>
      </trkpt>
      <trkpt lat="48.71456" lon="1.97886">
        <ele>110</ele>
        <time>2015-03-15T09:34:41Z</time>
      </trkpt>
      <trkpt lat="48.71457" lon="1.97922">
        <ele>110</ele>
        <time>2015-03-15T09:35:13Z</time>
      </trkpt>
      <trkpt lat="48.71444" lon="1.9799">
        <ele>110</ele>
        <time>2015-03-15T09:35:58Z</time>
      </trkpt>
      <trkpt lat="48.71438" lon="1.98058">
        <ele>107</ele>
        <time>2015-03-15T09:36:29Z</time>
      </trkpt>
      <trkpt lat="48.71439" lon="1.98127">
        <ele>107</ele>
        <time>2015-03-15T09:37:13Z</time>
      </trkpt>
      <trkpt lat="48.71423" lon="1.98153">
        <ele>114</ele>
        <time>2015-03-15T09:38:21Z</time>
      </trkpt>
      <trkpt lat="48.71427" lon="1.98145">
        <ele>122</ele>
        <time>2015-03-15T09:42:46Z</time>
      </trkpt>
      <trkpt lat="48.71427" lon="1.9818">
        <ele>112</ele>
        <time>2015-03-15T09:46:09Z</time>
      </trkpt>
      <trkpt lat="48.71417" lon="1.98212">
        <ele>110</ele>
        <time>2015-03-15T09:46:31Z</time>
      </trkpt>
      <trkpt lat="48.71388" lon="1.98265">
        <ele>110</ele>
        <time>2015-03-15T09:47:05Z</time>
      </trkpt>
      <trkpt lat="48.71365" lon="1.98271">
        <ele>110</ele>
        <time>2015-03-15T09:47:25Z</time>
      </trkpt>
      <trkpt lat="48.71355" lon="1.98303">
        <ele>109</ele>
        <time>2015-03-15T09:47:41Z</time>
      </trkpt>
      <trkpt lat="48.71332" lon="1.98365">
        <ele>107</ele>
        <time>2015-03-15T09:48:14Z</time>
      </trkpt>
      <trkpt lat="48.71299" lon="1.98415">
        <ele>105</ele>
        <time>2015-03-15T09:48:49Z</time>
      </trkpt>
      <trkpt lat="48.71299" lon="1.9845">
        <ele>103</ele>
        <time>2015-03-15T09:49:05Z</time>
      </trkpt>
      <trkpt lat="48.713" lon="1.98484">
        <ele>102</ele>
        <time>2015-03-15T09:49:21Z</time>
      </trkpt>
      <trkpt lat="48.71278" lon="1.985">
        <ele>101</ele>
        <time>2015-03-15T09:50:06Z</time>
      </trkpt>
      <trkpt lat="48.71237" lon="1.98534">
        <ele>101</ele>
        <time>2015-03-15T09:50:38Z</time>
      </trkpt>
      <trkpt lat="48.71195" lon="1.98567">
        <ele>101</ele>
        <time>2015-03-15T09:51:12Z</time>
      </trkpt>
      <trkpt lat="48.71177" lon="1.98589">
        <ele>99</ele>
        <time>2015-03-15T09:51:29Z</time>
      </trkpt>
      <trkpt lat="48.71153" lon="1.98585">
        <ele>99</ele>
        <time>2015-03-15T09:51:50Z</time>
      </trkpt>
      <trkpt lat="48.71107" lon="1.98578">
        <ele>98</ele>
        <time>2015-03-15T09:52:21Z</time>
      </trkpt>
      <trkpt lat="48.71061" lon="1.98576">
        <ele>96</ele>
        <time>2015-03-15T09:53:00Z</time>
      </trkpt>
      <trkpt lat="48.70992" lon="1.98591">
        <ele>93</ele>
        <time>2015-03-15T09:53:46Z</time>
      </trkpt>
      <trkpt lat="48.70969" lon="1.98593">
        <ele>93</ele>
        <time>2015-03-15T09:54:06Z</time>
      </trkpt>
      <trkpt lat="48.70947" lon="1.98578">
        <ele>94</ele>
        <time>2015-03-15T09:54:25Z</time>
      </trkpt>
      <trkpt lat="48.70927" lon="1.98563">
        <ele>95</ele>
        <time>2015-03-15T09:54:42Z</time>
      </trkpt>
      <trkpt lat="48.70904" lon="1.98565">
        <ele>95</ele>
        <time>2015-03-15T09:55:01Z</time>
      </trkpt>
      <trkpt lat="48.70859" lon="1.98543">
        <ele>95</ele>
        <time>2015-03-15T09:55:37Z</time>
      </trkpt>
      <trkpt lat="48.70836" lon="1.98546">
        <ele>96</ele>
        <time>2015-03-15T09:56:08Z</time>
      </trkpt>
      <trkpt lat="48.70823" lon="1.98575">
        <ele>97</ele>
        <time>2015-03-15T09:56:48Z</time>
      </trkpt>
      <trkpt lat="48.70799" lon="1.98635">
        <ele>98</ele>
        <time>2015-03-15T09:57:29Z</time>
      </trkpt>
      <trkpt lat="48.70764" lon="1.98683">
        <ele>98</ele>
        <time>2015-03-15T09:58:06Z</time>
      </trkpt>
      <trkpt lat="48.70759" lon="1.98716">
        <ele>99</ele>
        <time>2015-03-15T09:58:21Z</time>
      </trkpt>
      <trkpt lat="48.70739" lon="1.98734">
        <ele>100</ele>
        <time>2015-03-15T09:58:43Z</time>
      </trkpt>
      <trkpt lat="48.70716" lon="1.98729">
        <ele>101</ele>
        <time>2015-03-15T09:58:58Z</time>
      </trkpt>
      <trkpt lat="48.7067" lon="1.98741">
        <ele>101</ele>
        <time>2015-03-15T09:59:36Z</time>
      </trkpt>
      <trkpt lat="48.70623" lon="1.98743">
        <ele>99</ele>
        <time>2015-03-15T10:00:14Z</time>
      </trkpt>
      <trkpt lat="48.7061" lon="1.98715">
        <ele>98</ele>
        <time>2015-03-15T10:00:32Z</time>
      </trkpt>
      <trkpt lat="48.70595" lon="1.98687">
        <ele>95</ele>
        <time>2015-03-15T10:00:55Z</time>
      </trkpt>
      <trkpt lat="48.70582" lon="1.98659">
        <ele>95</ele>
        <time>2015-03-15T10:01:31Z</time>
      </trkpt>
      <trkpt lat="48.70565" lon="1.98633">
        <ele>95</ele>
        <time>2015-03-15T10:01:51Z</time>
      </trkpt>
      <trkpt lat="48.70583" lon="1.98613">
        <ele>94</ele>
        <time>2015-03-15T10:02:32Z</time>
      </trkpt>
      <trkpt lat="48.706" lon="1.98589">
        <ele>93</ele>
        <time>2015-03-15T10:02:54Z</time>
      </trkpt>
      <trkpt lat="48.70622" lon="1.9858">
        <ele>94</ele>
        <time>2015-03-15T10:03:29Z</time>
      </trkpt>
      <trkpt lat="48.70645" lon="1.98587">
        <ele>95</ele>
        <time>2015-03-15T10:03:48Z</time>
      </trkpt>
      <trkpt lat="48.70663" lon="1.98572">
        <ele>98</ele>
        <time>2015-03-15T10:04:32Z</time>
      </trkpt>
      <trkpt lat="48.7068" lon="1.98548">
        <ele>133</ele>
        <time>2015-03-15T10:07:11Z</time>
      </trkpt>
      <trkpt lat="48.70695" lon="1.98521">
        <ele>130</ele>
        <time>2015-03-15T10:07:34Z</time>
      </trkpt>
      <trkpt lat="48.70697" lon="1.98486">
        <ele>128</ele>
        <time>2015-03-15T10:08:01Z</time>
      </trkpt>
      <trkpt lat="48.70693" lon="1.98478">
        <ele>127</ele>
        <time>2015-03-15T10:08:06Z</time>
      </trkpt>
      <trkpt lat="48.70673" lon="1.98463">
        <ele>127</ele>
        <time>2015-03-15T10:08:25Z</time>
      </trkpt>
      <trkpt lat="48.70675" lon="1.98428">
        <ele>126</ele>
        <time>2015-03-15T10:08:48Z</time>
      </trkpt>
      <trkpt lat="48.70665" lon="1.98397">
        <ele>126</ele>
        <time>2015-03-15T10:09:01Z</time>
      </trkpt>
      <trkpt lat="48.70665" lon="1.98362">
        <ele>126</ele>
        <time>2015-03-15T10:09:26Z</time>
      </trkpt>
      <trkpt lat="48.70657" lon="1.9833">
        <ele>125</ele>
        <time>2015-03-15T10:09:50Z</time>
      </trkpt>
      <trkpt lat="48.70638" lon="1.9831">
        <ele>125</ele>
        <time>2015-03-15T10:10:09Z</time>
      </trkpt>
      <trkpt lat="48.7064" lon="1.98273">
        <ele>125</ele>
        <time>2015-03-15T10:10:33Z</time>
      </trkpt>
      <trkpt lat="48.70639" lon="1.98238">
        <ele>125</ele>
        <time>2015-03-15T10:10:44Z</time>
      </trkpt>
      <trkpt lat="48.70636" lon="1.98204">
        <ele>126</ele>
        <time>2015-03-15T10:11:03Z</time>
      </trkpt>
      <trkpt lat="48.70626" lon="1.98173">
        <ele>160</ele>
        <time>2015-03-15T10:12:04Z</time>
      </trkpt>
      <trkpt lat="48.70615" lon="1.98143">
        <ele>150</ele>
        <time>2015-03-15T10:12:49Z</time>
      </trkpt>
      <trkpt lat="48.70613" lon="1.98074">
        <ele>150</ele>
        <time>2015-03-15T10:13:24Z</time>
      </trkpt>
      <trkpt lat="48.70612" lon="1.98004">
        <ele>148</ele>
        <time>2015-03-15T10:13:57Z</time>
      </trkpt>
      <trkpt lat="48.7061" lon="1.97934">
        <ele>148</ele>
        <time>2015-03-15T10:14:31Z</time>
      </trkpt>
      <trkpt lat="48.70609" lon="1.97864">
        <ele>146</ele>
        <time>2015-03-15T10:15:04Z</time>
      </trkpt>
      <trkpt lat="48.70612" lon="1.97829">
        <ele>145</ele>
        <time>2015-03-15T10:15:22Z</time>
      </trkpt>
      <trkpt lat="48.70605" lon="1.97795">
        <ele>143</ele>
        <time>2015-03-15T10:15:39Z</time>
      </trkpt>
      <trkpt lat="48.70598" lon="1.97763">
        <ele>148</ele>
        <time>2015-03-15T10:16:43Z</time>
      </trkpt>
      <trkpt lat="48.70579" lon="1.97744">
        <ele>161</ele>
        <time>2015-03-15T10:18:58Z</time>
      </trkpt>
      <trkpt lat="48.70559" lon="1.97726">
        <ele>161</ele>
        <time>2015-03-15T10:19:13Z</time>
      </trkpt>
      <trkpt lat="48.70547" lon="1.97692">
        <ele>160</ele>
        <time>2015-03-15T10:19:37Z</time>
      </trkpt>
      <trkpt lat="48.7052" lon="1.97638">
        <ele>159</ele>
        <time>2015-03-15T10:20:07Z</time>
      </trkpt>
      <trkpt lat="48.70508" lon="1.97608">
        <ele>158</ele>
        <time>2015-03-15T10:20:26Z</time>
      </trkpt>
      <trkpt lat="48.70499" lon="1.9754">
        <ele>157</ele>
        <time>2015-03-15T10:21:02Z</time>
      </trkpt>
      <trkpt lat="48.70487" lon="1.97475">
        <ele>156</ele>
        <time>2015-03-15T10:21:36Z</time>
      </trkpt>
      <trkpt lat="48.70481" lon="1.97405">
        <ele>155</ele>
        <time>2015-03-15T10:22:12Z</time>
      </trkpt>
      <trkpt lat="48.70481" lon="1.97369">
        <ele>154</ele>
        <time>2015-03-15T10:22:30Z</time>
      </trkpt>
      <trkpt lat="48.70471" lon="1.97338">
        <ele>154</ele>
        <time>2015-03-15T10:22:48Z</time>
      </trkpt>
      <trkpt lat="48.70474" lon="1.97303">
        <ele>153</ele>
        <time>2015-03-15T10:23:11Z</time>
      </trkpt>
      <trkpt lat="48.70477" lon="1.97233">
        <ele>153</ele>
        <time>2015-03-15T10:23:49Z</time>
      </trkpt>
      <trkpt lat="48.70501" lon="1.97231">
        <ele>153</ele>
        <time>2015-03-15T10:24:10Z</time>
      </trkpt>
      <trkpt lat="48.70546" lon="1.97208">
        <ele>154</ele>
        <time>2015-03-15T10:24:49Z</time>
      </trkpt>
      <trkpt lat="48.70567" lon="1.97195">
        <ele>155</ele>
        <time>2015-03-15T10:25:21Z</time>
      </trkpt>
      <trkpt lat="48.70613" lon="1.97194">
        <ele>155</ele>
        <time>2015-03-15T10:26:03Z</time>
      </trkpt>
      <trkpt lat="48.70683" lon="1.97201">
        <ele>156</ele>
        <time>2015-03-15T10:26:53Z</time>
      </trkpt>
      <trkpt lat="48.70729" lon="1.97196">
        <ele>157</ele>
        <time>2015-03-15T10:27:50Z</time>
      </trkpt>
      <trkpt lat="48.7074" lon="1.97166">
        <ele>159</ele>
        <time>2015-03-15T10:28:29Z</time>
      </trkpt>
      <trkpt lat="48.70743" lon="1.97131">
        <ele>163</ele>
        <time>2015-03-15T10:29:01Z</time>
      </trkpt>
      <trkpt lat="48.7075" lon="1.97097">
        <ele>167</ele>
        <time>2015-03-15T10:29:19Z</time>
      </trkpt>
      <trkpt lat="48.70767" lon="1.9704">
        <ele>173</ele>
        <time>2015-03-15T10:29:49Z</time>
      </trkpt>
      <trkpt lat="48.70782" lon="1.97015">
        <ele>174</ele>
        <time>2015-03-15T10:30:03Z</time>
      </trkpt>
      <trkpt lat="48.70815" lon="1.96966">
        <ele>174</ele>
        <time>2015-03-15T10:30:36Z</time>
      </trkpt>
      <trkpt lat="48.70852" lon="1.96922">
        <ele>174</ele>
        <time>2015-03-15T10:31:06Z</time>
      </trkpt>
      <trkpt lat="48.70884" lon="1.96871">
        <ele>173</ele>
        <time>2015-03-15T10:31:40Z</time>
      </trkpt>
      <trkpt lat="48.70917" lon="1.96823">
        <ele>170</ele>
        <time>2015-03-15T10:32:13Z</time>
      </trkpt>
      <trkpt lat="48.7094" lon="1.96823">
        <ele>168</ele>
        <time>2015-03-15T10:32:36Z</time>
      </trkpt>
      <trkpt lat="48.70986" lon="1.96811">
        <ele>166</ele>
        <time>2015-03-15T10:33:09Z</time>
      </trkpt>
      <trkpt lat="48.71007" lon="1.96798">
        <ele>165</ele>
        <time>2015-03-15T10:33:25Z</time>
      </trkpt>
      <trkpt lat="48.71052" lon="1.96782">
        <ele>164</ele>
        <time>2015-03-15T10:33:57Z</time>
      </trkpt>
      <trkpt lat="48.71097" lon="1.96768">
        <ele>163</ele>
        <time>2015-03-15T10:34:31Z</time>
      </trkpt>
      <trkpt lat="48.71143" lon="1.96762">
        <ele>162</ele>
        <time>2015-03-15T10:35:08Z</time>
      </trkpt>
      <trkpt lat="48.71189" lon="1.96757">
        <ele>162</ele>
        <time>2015-03-15T10:35:40Z</time>
      </trkpt>
      <trkpt lat="48.71212" lon="1.96766">
        <ele>161</ele>
        <time>2015-03-15T10:35:56Z</time>
      </trkpt>
      <trkpt lat="48.71235" lon="1.96777">
        <ele>160</ele>
        <time>2015-03-15T10:36:17Z</time>
      </trkpt>
      <trkpt lat="48.71272" lon="1.96817">
        <ele>159</ele>
        <time>2015-03-15T10:36:56Z</time>
      </trkpt>
      <trkpt lat="48.71309" lon="1.96859">
        <ele>155</ele>
        <time>2015-03-15T10:37:38Z</time>
      </trkpt>
      <trkpt lat="48.71331" lon="1.96866">
        <ele>153</ele>
        <time>2015-03-15T10:37:53Z</time>
      </trkpt>
      <trkpt lat="48.71343" lon="1.96896">
        <ele>150</ele>
        <time>2015-03-15T10:38:20Z</time>
      </trkpt>
      <trkpt lat="48.71369" lon="1.96894">
        <ele>147</ele>
        <time>2015-03-15T10:38:26Z</time>
      </trkpt>
      <trkpt lat="48.71391" lon="1.96911">
        <ele>141</ele>
        <time>2015-03-15T10:38:46Z</time>
      </trkpt>
      <trkpt lat="48.71415" lon="1.96908">
        <ele>139</ele>
        <time>2015-03-15T10:39:04Z</time>
      </trkpt>
      <trkpt lat="48.71423" lon="1.96942">
        <ele>135</ele>
        <time>2015-03-15T10:39:30Z</time>
      </trkpt>
      <trkpt lat="48.71432" lon="1.96975">
        <ele>132</ele>
        <time>2015-03-15T10:39:38Z</time>
      </trkpt>
      <trkpt lat="48.71442" lon="1.96942">
        <ele>129</ele>
        <time>2015-03-15T10:40:14Z</time>
      </trkpt>
      <trkpt lat="48.71457" lon="1.96878">
        <ele>123</ele>
        <time>2015-03-15T10:40:52Z</time>
      </trkpt>
      <trkpt lat="48.71456" lon="1.96843">
        <ele>122</ele>
        <time>2015-03-15T10:41:10Z</time>
      </trkpt>
      <trkpt lat="48.71473" lon="1.96821">
        <ele>111</ele>
        <time>2015-03-15T10:42:34Z</time>
      </trkpt>
      <trkpt lat="48.71495" lon="1.96829">
        <ele>110</ele>
        <time>2015-03-15T10:42:51Z</time>
      </trkpt>
      <trkpt lat="48.71536" lon="1.96857">
        <ele>109</ele>
        <time>2015-03-15T10:43:31Z</time>
      </trkpt>
      <trkpt lat="48.71607" lon="1.96879">
        <ele>108</ele>
        <time>2015-03-15T10:44:18Z</time>
      </trkpt>
      <trkpt lat="48.7161" lon="1.96868">
        <ele>108</ele>
        <time>2015-03-15T10:44:56Z</time>
      </trkpt>
      <trkpt lat="48.716" lon="1.96837">
        <ele>105</ele>
        <time>2015-03-15T10:49:36Z</time>
      </trkpt>
      <trkpt lat="48.71605" lon="1.96845">
        <ele>104</ele>
        <time>2015-03-15T10:50:25Z</time>
      </trkpt>
      <trkpt lat="48.71622" lon="1.96868">
        <ele>106</ele>
        <time>2015-03-15T10:50:50Z</time>
      </trkpt>
      <trkpt lat="48.71612" lon="1.96836">
        <ele>93</ele>
        <time>2015-03-15T10:52:13Z</time>
      </trkpt>
      <trkpt lat="48.7163" lon="1.96809">
        <ele>94</ele>
        <time>2015-03-15T10:52:41Z</time>
      </trkpt>
      <trkpt lat="48.71667" lon="1.96767">
        <ele>96</ele>
        <time>2015-03-15T10:53:18Z</time>
      </trkpt>
      <trkpt lat="48.71677" lon="1.96736">
        <ele>97</ele>
        <time>2015-03-15T10:53:35Z</time>
      </trkpt>
      <trkpt lat="48.71686" lon="1.96668">
        <ele>98</ele>
        <time>2015-03-15T10:54:20Z</time>
      </trkpt>
      <trkpt lat="48.71702" lon="1.96643">
        <ele>98</ele>
        <time>2015-03-15T10:54:38Z</time>
      </trkpt>
      <trkpt lat="48.71729" lon="1.96589">
        <ele>99</ele>
        <time>2015-03-15T10:55:14Z</time>
      </trkpt>
      <trkpt lat="48.71744" lon="1.96563">
        <ele>99</ele>
        <time>2015-03-15T10:55:30Z</time>
      </trkpt>
      <trkpt lat="48.71768" lon="1.96505">
        <ele>98</ele>
        <time>2015-03-15T10:56:14Z</time>
      </trkpt>
      <trkpt lat="48.71794" lon="1.96448">
        <ele>98</ele>
        <time>2015-03-15T10:56:48Z</time>
      </trkpt>
      <trkpt lat="48.71799" lon="1.96413">
        <ele>99</ele>
        <time>2015-03-15T10:57:08Z</time>
      </trkpt>
      <trkpt lat="48.71785" lon="1.9644">
        <ele>100</ele>
        <time>2015-03-15T10:57:36Z</time>
      </trkpt>
      <trkpt lat="48.71763" lon="1.96453">
        <ele>100</ele>
        <time>2015-03-15T10:57:54Z</time>
      </trkpt>
      <trkpt lat="48.71743" lon="1.96437">
        <ele>101</ele>
        <time>2015-03-15T10:58:12Z</time>
      </trkpt>
      <trkpt lat="48.71726" lon="1.96412">
        <ele>95</ele>
        <time>2015-03-15T10:59:34Z</time>
      </trkpt>
      <trkpt lat="48.71721" lon="1.96378">
        <ele>93</ele>
        <time>2015-03-15T10:59:55Z</time>
      </trkpt>
      <trkpt lat="48.71716" lon="1.96343">
        <ele>94</ele>
        <time>2015-03-15T11:00:16Z</time>
      </trkpt>
      <trkpt lat="48.71724" lon="1.96311">
        <ele>93</ele>
        <time>2015-03-15T11:00:35Z</time>
      </trkpt>
      <trkpt lat="48.71747" lon="1.96313">
        <ele>94</ele>
        <time>2015-03-15T11:00:48Z</time>
      </trkpt>
      <trkpt lat="48.71788" lon="1.96346">
        <ele>93</ele>
        <time>2015-03-15T11:01:21Z</time>
      </trkpt>
      <trkpt lat="48.71811" lon="1.96347">
        <ele>93</ele>
        <time>2015-03-15T11:02:00Z</time>
      </trkpt>
      <trkpt lat="48.71829" lon="1.96325">
        <ele>93</ele>
        <time>2015-03-15T11:02:24Z</time>
      </trkpt>
      <trkpt lat="48.71843" lon="1.96295">
        <ele>93</ele>
        <time>2015-03-15T11:02:43Z</time>
      </trkpt>
      <trkpt lat="48.71865" lon="1.96234">
        <ele>95</ele>
        <time>2015-03-15T11:03:20Z</time>
      </trkpt>
      <trkpt lat="48.71886" lon="1.96173">
        <ele>96</ele>
        <time>2015-03-15T11:04:12Z</time>
      </trkpt>
      <trkpt lat="48.719" lon="1.96147">
        <ele>97</ele>
        <time>2015-03-15T11:05:31Z</time>
      </trkpt>
      <trkpt lat="48.719" lon="1.96112">
        <ele>100</ele>
        <time>2015-03-15T11:05:53Z</time>
      </trkpt>
      <trkpt lat="48.7192" lon="1.96093">
        <ele>100</ele>
        <time>2015-03-15T11:06:09Z</time>
      </trkpt>
      <trkpt lat="48.71932" lon="1.96123">
        <ele>102</ele>
        <time>2015-03-15T11:06:47Z</time>
      </trkpt>
      <trkpt lat="48.71936" lon="1.96157">
        <ele>103</ele>
        <time>2015-03-15T11:07:08Z</time>
      </trkpt>
      <trkpt lat="48.7195" lon="1.96129">
        <ele>102</ele>
        <time>2015-03-15T11:07:37Z</time>
      </trkpt>
      <trkpt lat="48.71965" lon="1.961">
        <ele>103</ele>
        <time>2015-03-15T11:07:59Z</time>
      </trkpt>
      <trkpt lat="48.71949" lon="1.96075">
        <ele>102</ele>
        <time>2015-03-15T11:08:32Z</time>
      </trkpt>
      <trkpt lat="48.71972" lon="1.96082">
        <ele>103</ele>
        <time>2015-03-15T11:09:39Z</time>
      </trkpt>
      <trkpt lat="48.71978" lon="1.96045">
        <ele>96</ele>
        <time>2015-03-15T11:10:03Z</time>
      </trkpt>
      <trkpt lat="48.71995" lon="1.96022">
        <ele>97</ele>
        <time>2015-03-15T11:10:18Z</time>
      </trkpt>
      <trkpt lat="48.72006" lon="1.9599">
        <ele>97</ele>
        <time>2015-03-15T11:10:35Z</time>
      </trkpt>
      <trkpt lat="48.71996" lon="1.95956">
        <ele>96</ele>
        <time>2015-03-15T11:10:42Z</time>
      </trkpt>
      <trkpt lat="48.72002" lon="1.95923">
        <ele>96</ele>
        <time>2015-03-15T11:10:53Z</time>
      </trkpt>
      <trkpt lat="48.71981" lon="1.95909">
        <ele>96</ele>
        <time>2015-03-15T11:11:15Z</time>
      </trkpt>
      <trkpt lat="48.71979" lon="1.95944">
        <ele>111</ele>
        <time>2015-03-15T11:21:52Z</time>
      </trkpt>
      <trkpt lat="48.72003" lon="1.95939">
        <ele>104</ele>
        <time>2015-03-15T11:23:28Z</time>
      </trkpt>
      <trkpt lat="48.71985" lon="1.95936">
        <ele>115</ele>
        <time>2015-03-15T11:26:22Z</time>
      </trkpt>
    </trkseg>
  </trk>
</gpx>